Home > Results > 2006/2007 Season

2006/2007 Season

NSW Club Champs results
Distance: S1.0km C30km R8km
Date: 28 April 2007

Name Age Cat. Time
Shaun Wadham M30-34 1:44:04
Eoin Reville M24-29 1:44:34
Eamonn Kenihan M30-34 1:45:46
Iain Robinson M24-29 1:48:17
Gerard Sarkozy M30-34 1:49:01
Nick Glozier M40-44 1:49:33
James Brown M24-29 1:49:41
Matt Spence M30-34 1:51:22
Mark Ley M35-39 1:52:08
Jim O’Brien M30-34 1:52:18
Dean Ormston M40-44 1:52:46
Alexia Ford F24-29 1:52:59
Lee Liston M35-39 1:53:20
Richard Berger M30-34 1:54:47
Alice Mcclure F30-34 1:57:00
Caroline Mckenna F24-29 1:57:24
Steve Murray M35-39 1:57:37
Stuart Taylor M30-34 1:57:39
Emily Watson F30-34 1:58:12
Kate Bradley F24-29 2:01:47
Katheryn Chambers F35-39 2:03:43
William Joel Best M24-29 2:07:23
Bruce Flaherty M55-59 2:09:26
Trudi Davies F30-34 2:09:30
Cenk Baban M30-34 2:12:01
Helen France F35-39 2:12:45
Roo Killick F30-34 2:13:41
Ken Price M55-59 2:16:12
Tanja Boric F35-39 2:18:44
Sari Ogata F19-23 2:18:52
Gj Wechgelaer M40-44 2:21:06
Lorraine Berends F45-49 2:24:14
Rachel Petkovic F30-34 2:33:08
Samantha Renwick F35-39 2:33:08
Nicole Moysey F24-29 2:33:10
Ron Berends M55-59 3:07:53

 

Ironman Australia results
Distance: S3.8km C180km R42.2km
Date: 1 April 2007

Name Age Cat. Time
Alice McClure F30-34 10:37:06
Gerard Sarkozy M30-34 11:29:33
Steve Murray M35-39 12:13:16
Justin O’Neil M30-34 12:26:35
Mark Ley M35-39 12:41:15
Donna Richards F30-34 12:51:53
Nadene Serman F30-34 13:49:19

Cronulla Olympic Dsitance
Distance: S1.5km C40km R10km
Date: 19 March 2007

Name Age Cat. Time
Eoin Reville M25-29 2:16:59
Anton Botes M25-29 2:20:52
Gerard Sarkozy M30-34 2:22:19
Dave Williams M25-29 2:23:09
Alice McClure F30-34 2:24:24
Andrew Rodd M35-39 2:24:24
Stuart Roach M35-39 2:25:41
Stuart Taylor M30-34 2:28:32
Emma Brown F30-34 2:37:42
Katie Mckinnon F25-29 2:40:48
Bruce Flaherty M55-59 2:54:24

Cook & Phillip Pool Swim Time Trials
Distance: S1000m
Date: 15 March 2007

Name Time Ave/100m
Stuart Taylor 16:10 01:37.0
Andrew Rodd 16:22 01:38.2
Alice McClure 16:40 01:40.0
Eoin Reville 16:57 01:41.7
Joel Best 16:58 01:41.8
Jim Ploughman 17:08 01:42.0
Richard Berger 17:14 01:43.0
Susan McDonald 17:27 01:44.0
Katie Mckinnon 17:53 01:47.0
Justin O’Neill 18:20 01:50.1
Simon Hughes 18:49 01:52.9
Wendy Andrews 18:50 01:53.0
Nadene Serman 18:55 01:53.5
Mick Elliot 19:05 01:54.5
Vincent Urbano 20:52 02:05.0
Carmen Burne 22:08 02:12.0
Bruce Flaherty 12:35 02:36.0

Centennial Park Bike Time Trials
Distance: C25.5km
Date: 14 March 2007

Name Time km/hr
Shaun Wadham 44:00 34.50
James Brown 45:16 33.70
Mick Elliot 45:20 33.70
Stuart Taylor 46:00 33.33
Stuart Roach 47:22 32.43
Helen F 50:53 30.00
Emma Brown 52:43 29.10
Sue McDonald DNF -
Katie Mckinnon DNF -
Lydia Nicholson DNF -

Kurnell Race 4
Distance: S750m C20km R5km
Date: 12 March 2007

Name Age Cat. Time
Nick Glozier M40-44 1:05:11
Dean Ormston M40-44 1:08:20
Anton Botes M24-29 1:08:50
Richard Berger M30-34 1:11:49
Bruce Flaherty M55-59 1:19:08

Australian Long Course Championships
Distance: S2km C83km R20km
Date: 25 February 2007

Name Age Cat. Time
Eoin Reville M25-29 4:33:16
Iain Robinson M25-29 4:34:56
Gerard Sarkozy M30-34 4:39:21
Alice McClure F30-34 4:41:40
Steve Murray M35-39 4:47:28
Mark Ley M35-39 4:56:28
Donna Richards F30-34 5:01:13
Justin O’Neil M30-34 5:16:29
Roo Killick F30-34 5:39:42
Nadene Serman F30-34 6:06:01

Australian Sprint Championships
Distance: S750m C20km R5km
Date: 24 February 2007

Name Age Cat. Time
Dave Williams M25-29 1:12:13
Stuart Roach M35-39 1:15:58
Stuart Taylor M30-34 1:16:51
Richard Berger M30-34 1:19:08
Vanessa Hannan F30-34 1:23:47
Bruce Flaherty M55-59 1:24:13
Col Marshall M35-39 1:27:44
GJ Wechgelaer M40-44 1:36:27

Triathlon Australia Tour Series – Race 5 (Hobart)
Distance: S1.5km C40km R10km
Date: 18 February 2007

Name Age Cat. Time
Anton Botes M25-29 2:29:39

Kurnell Race 3
Distance: S750m C20km R5km
Date: 12 February 2007

Name Age Cat. Time
Anton Botes M25-29 1:08:31
Alice McClure F30-34 1:08:55
Eoin Reville M25-29 1:09:31
Dean Ormston M40-44 1:11:04
Caroline McKenna F25-29 1:14:36
Emma Brown F30-34 1:20:00
Bruce Flaherty M55-59 1:20:39
Carmen Byrne F40-44 1:24:25
Sarah Heine F35-39 1:29:18

Cook & Phillip Pool Time Trials
Distance: S1000m
Date: 6 February 2007

Name Time
Donna Richards 16:40
Trudi Davies 17:30
Kate Bradley 17:31
Eoin Reville 17:54
Susan McDonald 19:04
Ron Berends 19:13
Richard Springhall 19:16
Nicole Moysey 19:50
Carmen Byrne 19:51
Mick Elliot 19:45
Wendy Andrews 20:03
Lorraine Berends 21:21
Sarah Heine 22:11
Bruce Flaherty 24:30

Kurnell Race 2
Distance: S750m C20km R5km
Date: 14 January 2007

Name Age Cat. Time
Alice McClure F30-34 1:10:35
Steve Murray M35-39 1:12:38
Dean Ormston M40-44 1:13:40
Stuart Taylor M30-34 1:13:45
Vanessa Hannan F30-34 1:21:00
Emma Brown F30-34 1:22:49
Bruce Flaherty M55-59 1:22:58

Tasmania Half Ironman
Distance: S1.9km C90km R21.1km
Date: 14 January 2007

Name Age Cat. Time
Andrew Rodd M30-34 5:12:05

Kurnell Race 1
Distance: S750m C20km R5km
Date: 26 November 2006

Name Age Cat. Time
Alice McClure F30-34 1:14:23
Nick Glozier M40-45 1:10:58

Newcastle Olympic Distance Triathlon
Distance: S1.5km C40km R10km
Date: 26 November 2006

Name Age Cat. Time
Donna Richards F30-34 2:47:06
Stuart Taylor M30-34 2:51:30
Helen Cox F30-34 3:00:36
Carmen Byrne F40-44 3:03:13
Sarah Heine F35-39 3:16:05

World Long Course
Distance: S4km C120km R30km
Date: 19 November 2006

Name Age Cat. Time
Iain Robinson M25-29 7:54:02
Jim O’Brien M30-34 7:55:40
Eoin Reville M25-29 8:22:01
Mark Ley M35-39 8:25:23
Eamonn Kenihan M30-34 8:40:06
Caroline McKenna F25-29 8:47:58
Steve Murray M35-39 9:03:14

Nowra Olympic Distance Triathlon
Distance: S1.5km C40km R10km
Date: 12 November 2006

Name Age Cat. Time
Alice McClure F30-34 2:27:49

Port Macquarie Half Ironman 70.3
Distance: S1.9km C90km R21.1km
Date: 5 November 2006

Name Age Cat. Time
Donna Richards F30-34 5:41:47

Napean Triathlon
Distance: S1km C30km R8km
Date: 30 October 2006

Name Age Cat. Time
Steve Murray M35-39 1:55:35
Andrew Rodd M30-34 2:04:12
Carmen Byrne F40-44 2:12:46
Katie McKinnon F25-29 2:17:19

Noosa Triathlon
Distance: S1.5km C40km R10km
Date: 29 October 2006

Name Age Cat. Time
Mark Gardiner M25-29 2:08:36
David Williams M25-29 2:14:55
Eoin Reville M25-29 2:17:41
Lee Liston M35-39 2:20:40
Brendan Robinson M25-29 2:25:41
Stuart Roach M35-39 2:28:10
Heidi Moore F35-39 2:33:44
Caroline McKenna F25-29 2:34:07
Emma Trask F25-29 2:34:07
Emma Brown F30-34 2:37:46
Helen Cox F30-34 2:40:00
Asim Brown M35-39 2:45:31
Ben Smith M25-29 2:46:27
Vibeke Murphy F30-34 2:47:48
Andrew Edwards-Parton M25-29 2:59:21
GJ Wechgelaer M40-44 3:01:59
Nicole Moysey F25-29 3:11:00

Hawaii Ironman World Championship
Distance: S3.8km C180km R42.2km
Date: 21 October 2006

Name Age Cat. Time
Alice McClure F30-34 10:58:23
Victoria Farrer F35-39 11:38:58

Maitland Triathlon
Distance: S1km C30km R8km
Date: 15 October 2006

Name Age Cat. Time
Trudi Davies F30-34 2:00:05
Tanja Boric F35-39 2:13:28
Steve Murray M35-39 1:45:01

Gold Coast Half Ironman
Distance: S1.9km C90km R21.1km
Date: 1 October 2006

Name Age Cat. Time
Shaun Wadham M30-34 4:30:35
Iain Robinson M25-29 4:42:24
Jim O’Brien M30-34 4:50:02
Gerard Sarkozy M30-34 4:52:49
Mark Ley M35-39 4:53:27
Alice McClure F30-34 5:00:41
David Williams M25-29 5:10:47
Dean Ormston M40-44 5:13:11
Caroline McKenna F25-29 5:15:12
Brendan Robinson M25-29 5:16:27
Stuart Roach M35-39 5:18:54
Donna Richards F30-34 5:22:01
Trudi Davies F30-34 5:41:19
Sarah Goldsmith F25-29 5:51:38
Carmen Byrne F40-44 6:14:02
Roo Killick F30-34 6:18:33
Sarah Heine F35-39 6:20:14
Col’s Angels McDonald/Watson/Cockshell Team 4:46:43
Col’s Devils Trask/Marshall/Eyssens Team 5:54:04

Ironman Korea
Distance: S3.8km C180km R42.2km
Date: 27 August 2006

Name Age Cat. Time
Victoria Farrer F35-39 11:15
John Bugg M35-39 11:40

Ironman Canada
Distance: S3.8km C180km R42.2km
Date: 26 August 2006

Name Age Cat. Time
Mark Gardiner M25-29 12:15

Australian Duathlon Championships
Distance: R10km C40km R5km
Date: 20 August 2006

Name Age Cat. Time
Ian Robinson M25-29 2:05:29
Eoin Reville M25-29 2:09:40

Iain 8th in age group – Well done.
36 minute 10km run by Eoin which is very sharp.

Yeppoon Half Ironman
Distance: S1.9km C90km R21.1km
Date: 13 August 2006

Name Age Cat. Time
Steve Murray M35-39 5:18:55
Trudi Davies F30-34 7:00:03

Congratulations to Steve Murray who qualified for the 2007 Australian Ironman.
Trudi had some stomach problems but battled through and did well to finish.